Time;durP1;ratioP1;P1;durP2;ratioP2;P2;SDS_P1;SDS_P2;PMS_P1;PMS_P2;Temp;Humidity;BMP_temperature;BMP_pressure;BME280_temperature;BME280_humidity;BME280_pressure;Samples;Min_cycle;Max_cycle;Signal;HPM_P1;HPM_P2
2023/04/07 00:00:51;;;;;;;20.95;10.68;;;;;;;11.87;43.48;96326.47;5026319;28;21025;-51
2023/04/07 00:03:22;;;;;;;20.20;10.20;;;;;;;11.71;44.10;96329.00;5024671;28;20080;-49
2023/04/07 00:05:51;;;;;;;17.45;9.93;;;;;;;11.59;44.52;96328.41;5024870;28;20074;-43
2023/04/07 00:08:19;;;;;;;20.90;10.52;;;;;;;11.67;44.48;96332.94;5025120;28;20099;-50
2023/04/07 00:10:47;;;;;;;18.38;9.93;;;;;;;11.00;45.64;96335.19;5028336;28;20085;-48
2023/04/07 00:13:16;;;;;;;22.83;10.60;;;;;;;11.14;45.84;96329.38;5029861;28;20196;-50
2023/04/07 00:15:44;;;;;;;21.60;9.95;;;;;;;11.45;45.37;96327.16;5026414;28;20099;-48
2023/04/07 00:18:12;;;;;;;16.40;8.68;;;;;;;11.39;45.93;96331.25;5028179;28;20081;-48
2023/04/07 00:20:42;;;;;;;20.08;10.23;;;;;;;11.46;45.94;96320.91;5022413;28;20081;-44
2023/04/07 00:23:11;;;;;;;16.27;9.27;;;;;;;11.55;45.45;96322.59;5026109;28;20073;-47
2023/04/07 00:25:41;;;;;;;21.58;9.98;;;;;;;11.59;45.24;96325.78;5027727;28;20057;-46
2023/04/07 00:28:09;;;;;;;15.85;8.93;;;;;;;11.55;44.82;96317.31;5034638;28;20481;-47
2023/04/07 00:30:38;;;;;;;17.85;9.57;;;;;;;11.49;45.27;96317.94;5025348;28;20080;-45
2023/04/07 00:33:06;;;;;;;17.08;9.45;;;;;;;11.56;44.97;96316.38;5023682;28;23441;-45
2023/04/07 00:35:36;;;;;;;;;;;;;;;11.62;44.99;96313.09;5027610;28;20081;-50
2023/04/07 00:38:06;;;;;;;17.17;8.45;;;;;;;11.66;44.66;96313.59;5030147;28;19959;-46
2023/04/07 00:40:35;;;;;;;18.87;9.57;;;;;;;11.76;44.36;96298.47;5030545;28;20081;-45
2023/04/07 00:43:03;;;;;;;17.55;9.40;;;;;;;11.51;45.04;96309.88;5025212;28;20080;-48
2023/04/07 00:45:32;;;;;;;15.43;8.95;;;;;;;11.62;44.94;96310.44;5022874;28;20108;-46
2023/04/07 00:48:00;;;;;;;14.45;8.25;;;;;;;11.71;44.49;96300.78;5021181;28;20080;-47
2023/04/07 00:50:28;;;;;;;15.35;8.63;;;;;;;11.78;44.42;96309.72;5026111;28;20097;-51
2023/04/07 00:52:57;;;;;;;15.07;8.20;;;;;;;11.99;44.30;96296.19;5032035;28;20080;-56
2023/04/07 00:55:26;;;;;;;15.38;8.48;;;;;;;12.03;44.38;96297.50;5027269;28;20112;-50
2023/04/07 00:57:55;;;;;;;14.93;8.52;;;;;;;12.14;44.14;96298.22;5025944;28;20076;-46
2023/04/07 01:00:24;;;;;;;15.00;8.30;;;;;;;12.26;44.25;96294.31;5023143;28;20094;-46
2023/04/07 01:02:57;;;;;;;15.60;8.48;;;;;;;12.32;44.04;96286.59;5025946;28;20085;-46
2023/04/07 01:05:37;;;;;;;17.33;8.73;;;;;;;12.43;43.69;96289.94;5020481;28;20092;-48
2023/04/07 01:08:13;;;;;;;16.63;7.93;;;;;;;12.34;43.64;96284.59;5023365;28;20045;-50
2023/04/07 01:10:49;;;;;;;15.52;8.23;;;;;;;12.66;43.13;96284.84;5027685;28;20672;-48
2023/04/07 01:13:23;;;;;;;14.82;7.82;;;;;;;12.56;43.10;96282.38;5029800;28;20069;-49
2023/04/07 01:15:55;;;;;;;15.65;7.93;;;;;;;12.55;43.52;96288.63;5023417;28;20080;-51
2023/04/07 01:18:27;;;;;;;13.45;8.20;;;;;;;12.42;44.86;96286.47;5029146;28;20089;-47
2023/04/07 01:21:01;;;;;;;13.38;7.03;;;;;;;12.69;43.92;96285.34;5031459;28;20088;-49
2023/04/07 01:23:38;;;;;;;18.38;7.82;;;;;;;12.72;43.77;96286.84;5026425;28;20111;-45
2023/04/07 01:26:20;;;;;;;13.65;8.13;;;;;;;12.50;44.14;96280.38;5025627;28;20088;-48
2023/04/07 01:29:10;;;;;;;14.45;7.70;;;;;;;12.86;43.45;96272.16;5026201;28;20080;-48
2023/04/07 01:31:41;;;;;;;12.82;7.10;;;;;;;12.93;42.98;96273.97;5024534;28;20474;-46
2023/04/07 01:34:10;;;;;;;13.52;6.60;;;;;;;12.91;43.08;96275.97;5031519;28;20129;-48
2023/04/07 01:36:39;;;;;;;12.38;7.40;;;;;;;12.80;43.38;96276.28;5028274;28;20077;-49
2023/04/07 01:39:08;;;;;;;12.82;7.20;;;;;;;12.78;43.07;96273.81;5025133;28;20099;-48
2023/04/07 01:41:37;;;;;;;12.95;7.32;;;;;;;12.93;42.53;96266.03;5026642;28;20104;-46
2023/04/07 01:44:07;;;;;;;14.05;7.40;;;;;;;12.27;43.92;96280.09;5024584;28;20480;-43
2023/04/07 01:46:35;;;;;;;10.85;7.07;;;;;;;12.11;44.45;96283.50;5027334;28;20076;-46
2023/04/07 01:49:05;;;;;;;14.65;6.93;;;;;;;12.00;44.76;96274.03;5025913;28;20072;-46
2023/04/07 01:51:34;;;;;;;12.85;7.20;;;;;;;12.28;44.50;96273.81;5056205;28;20107;-47
2023/04/07 01:54:04;;;;;;;9.82;6.53;;;;;;;12.03;44.47;96280.84;5023779;28;20460;-47
2023/04/07 01:56:33;;;;;;;10.07;6.63;;;;;;;12.26;44.57;96273.19;5056649;28;20084;-48
2023/04/07 01:59:01;;;;;;;13.00;7.30;;;;;;;12.34;44.61;96274.00;5029767;28;20073;-54
2023/04/07 02:01:30;;;;;;;10.82;6.57;;;;;;;12.38;44.44;96277.16;5027569;28;20080;-50
2023/04/07 02:04:06;;;;;;;11.88;6.60;;;;;;;12.44;44.04;96268.59;5024073;28;20080;-48
2023/04/07 02:06:47;;;;;;;14.15;6.80;;;;;;;12.35;44.25;96266.91;5027787;28;20077;-49
2023/04/07 02:09:17;;;;;;;12.68;6.97;;;;;;;12.45;43.98;96266.78;5023659;28;20089;-53
2023/04/07 02:11:46;;;;;;;13.90;6.88;;;;;;;12.36;43.87;96268.59;5025639;28;20465;-43
2023/04/07 02:14:14;;;;;;;13.20;7.05;;;;;;;12.45;43.97;96274.72;5027114;28;20093;-48
2023/04/07 02:16:43;;;;;;;13.50;7.05;;;;;;;12.28;44.32;96269.34;5034194;28;20081;-48
2023/04/07 02:19:13;;;;;;;11.38;7.10;;;;;;;12.10;44.85;96269.47;5028626;28;20088;-50
2023/04/07 02:21:44;;;;;;;14.82;7.72;;;;;;;12.13;44.82;96264.84;5027284;28;20084;-46
2023/04/07 02:24:12;;;;;;;;;;;;;;;12.06;45.02;96273.41;5029304;28;20528;-51
2023/04/07 02:26:42;;;;;;;17.35;7.28;;;;;;;11.93;45.53;96265.09;5027550;28;19925;-47
2023/04/07 02:29:10;;;;;;;11.50;6.57;;;;;;;12.05;45.45;96258.56;5028756;28;20079;-49
2023/04/07 02:31:39;;;;;;;12.38;7.00;;;;;;;11.69;46.07;96262.28;5027503;28;20085;-52
2023/04/07 02:34:07;;;;;;;10.50;6.72;;;;;;;12.10;45.37;96260.69;5030178;28;20488;-47
2023/04/07 02:36:35;;;;;;;12.00;6.65;;;;;;;12.24;45.02;96261.91;5031042;28;20080;-50
2023/04/07 02:39:05;;;;;;;12.38;6.78;;;;;;;12.21;45.30;96260.41;5029813;28;20521;-46
2023/04/07 02:41:33;;;;;;;11.03;6.30;;;;;;;12.33;45.33;96256.50;5029488;28;20095;-49
2023/04/07 02:44:02;;;;;;;10.00;6.20;;;;;;;11.99;46.06;96253.88;5029367;28;20081;-46
2023/04/07 02:46:30;;;;;;;11.07;6.40;;;;;;;11.84;47.50;96258.94;5026997;28;20077;-43
2023/04/07 02:48:59;;;;;;;10.70;6.28;;;;;;;11.81;47.43;96251.31;5025205;28;20180;-46
2023/04/07 02:51:27;;;;;;;11.75;6.03;;;;;;;11.62;48.35;96252.34;5026238;28;20099;-46
2023/04/07 02:53:56;;;;;;;13.57;5.90;;;;;;;11.67;48.80;96249.25;5028093;28;20077;-52
2023/04/07 02:56:25;;;;;;;15.07;6.05;;;;;;;11.72;49.00;96251.41;5034807;28;20080;-48
2023/04/07 02:58:54;;;;;;;10.83;5.80;;;;;;;11.35;50.03;96261.22;5034079;28;20548;-49
2023/04/07 03:01:22;;;;;;;13.40;6.43;;;;;;;10.90;51.62;96256.91;5029606;28;20077;-45
2023/04/07 03:03:50;;;;;;;10.60;5.43;;;;;;;11.36;51.02;96262.09;5025081;28;20085;-45
2023/04/07 03:06:19;;;;;;;10.23;5.85;;;;;;;11.68;50.67;96248.25;5032230;28;20085;-46
2023/04/07 03:08:47;;;;;;;8.70;5.38;;;;;;;11.65;51.21;96252.03;5028076;28;20077;-46
2023/04/07 03:11:16;;;;;;;9.80;4.88;;;;;;;11.60;52.37;96243.75;5027739;28;20094;-47
2023/04/07 03:13:45;;;;;;;7.82;4.75;;;;;;;12.08;51.77;96242.38;5032325;28;20077;-51
2023/04/07 03:16:14;;;;;;;9.77;5.33;;;;;;;12.37;51.31;96232.38;5025804;28;20124;-45
2023/04/07 03:18:42;;;;;;;10.50;5.00;;;;;;;12.56;50.77;96240.03;5022007;28;20505;-46
2023/04/07 03:21:10;;;;;;;8.20;4.45;;;;;;;12.75;49.38;96245.03;5020786;28;20080;-46
2023/04/07 03:23:39;;;;;;;10.10;5.30;;;;;;;13.10;48.41;96237.75;5025714;28;20073;-47
2023/04/07 03:26:07;;;;;;;10.80;5.60;;;;;;;13.18;47.70;96231.63;5026395;28;20103;-46
2023/04/07 03:28:35;;;;;;;12.40;5.70;;;;;;;13.06;46.45;96236.44;5036600;28;20076;-47
2023/04/07 03:31:05;;;;;;;11.43;5.43;;;;;;;13.08;46.27;96229.19;5029523;28;20089;-54
2023/04/07 03:33:33;;;;;;;11.65;5.45;;;;;;;13.03;46.12;96234.94;5026287;28;20469;-50
2023/04/07 03:36:02;;;;;;;9.02;5.50;;;;;;;12.97;46.07;96237.44;5028074;28;20104;-48
2023/04/07 03:38:30;;;;;;;10.38;5.55;;;;;;;12.95;45.99;96234.13;5027326;28;20076;-45
2023/04/07 03:40:58;;;;;;;10.82;5.50;;;;;;;12.92;45.95;96237.94;5026051;28;20464;-51
2023/04/07 03:43:26;;;;;;;9.45;5.00;;;;;;;12.99;45.77;96232.81;5026876;28;20180;-51
2023/04/07 03:45:55;;;;;;;8.27;5.55;;;;;;;13.02;45.69;96225.34;5034239;28;20564;-47
2023/04/07 03:48:25;;;;;;;10.35;5.40;;;;;;;13.03;45.80;96234.13;5027208;28;20080;-54
2023/04/07 03:50:56;;;;;;;10.35;4.55;;;;;;;13.09;45.82;96228.19;5032394;28;20096;-47
2023/04/07 03:53:24;;;;;;;10.82;5.35;;;;;;;13.18;45.70;96234.28;5028592;28;20081;-48
2023/04/07 03:55:53;;;;;;;10.57;5.70;;;;;;;13.09;45.77;96232.66;5031369;28;20084;-47
2023/04/07 03:58:21;;;;;;;9.38;5.50;;;;;;;13.16;45.82;96228.34;5030653;28;20087;-45
2023/04/07 04:00:49;;;;;;;11.18;5.93;;;;;;;13.16;45.78;96220.41;5025835;28;20089;-46
2023/04/07 04:03:18;;;;;;;11.68;6.05;;;;;;;13.03;46.14;96227.00;5028613;28;20092;-49
2023/04/07 04:05:48;;;;;;;10.60;6.18;;;;;;;13.09;45.90;96224.72;5025523;28;20081;-48
2023/04/07 04:08:16;;;;;;;9.90;5.40;;;;;;;13.13;46.05;96226.03;5027161;28;20077;-51
2023/04/07 04:10:44;;;;;;;9.15;5.22;;;;;;;13.26;46.12;96219.25;5028615;28;20085;-52
2023/04/07 04:13:13;;;;;;;7.68;4.57;;;;;;;13.39;45.79;96212.63;5024967;28;20085;-52
2023/04/07 04:15:41;;;;;;;8.00;4.97;;;;;;;13.51;45.74;96213.91;5023522;28;20540;-51
2023/04/07 04:18:09;;;;;;;9.50;4.90;;;;;;;13.60;45.96;96210.25;5023427;28;20093;-53
2023/04/07 04:20:38;;;;;;;8.77;4.22;;;;;;;13.68;45.73;96210.22;5023667;28;20096;-48
2023/04/07 04:23:07;;;;;;;7.43;4.45;;;;;;;13.81;45.81;96204.41;5030132;28;20085;-51
2023/04/07 04:25:38;;;;;;;6.90;4.43;;;;;;;13.90;45.77;96215.78;5028025;28;20084;-45
2023/04/07 04:28:06;;;;;;;7.85;4.63;;;;;;;14.00;46.02;96209.31;5014581;28;20653;-46
2023/04/07 04:30:34;;;;;;;8.73;4.50;;;;;;;14.09;46.05;96204.78;5029435;28;20077;-48
2023/04/07 04:33:03;;;;;;;7.93;4.75;;;;;;;14.16;45.86;96202.28;5025987;28;20077;-52
2023/04/07 04:35:31;;;;;;;8.60;4.88;;;;;;;14.22;45.81;96213.00;5029105;28;20080;-48
2023/04/07 04:38:00;;;;;;;8.75;4.55;;;;;;;14.27;46.04;96212.50;5022893;28;20084;-44
2023/04/07 04:40:30;;;;;;;7.28;4.15;;;;;;;14.37;45.85;96213.09;5024593;28;20088;-50
2023/04/07 04:42:58;;;;;;;7.30;4.20;;;;;;;14.43;45.68;96207.09;5026591;28;20085;-50
2023/04/07 04:45:26;;;;;;;9.43;4.60;;;;;;;14.56;45.98;96211.88;5024595;28;20111;-46
2023/04/07 04:47:54;;;;;;;6.18;3.97;;;;;;;14.67;47.08;96215.94;5024083;28;20095;-50
2023/04/07 04:50:23;;;;;;;5.90;4.10;;;;;;;14.57;46.98;96208.22;5025357;28;20090;-52
2023/04/07 04:52:51;;;;;;;5.47;3.38;;;;;;;14.89;47.07;96207.16;5025965;28;20084;-47
2023/04/07 04:55:19;;;;;;;5.95;3.58;;;;;;;14.67;48.62;96210.63;5030654;28;20533;-45
2023/04/07 04:57:49;;;;;;;6.93;3.80;;;;;;;15.02;47.10;96209.22;5028279;28;20407;-48
2023/04/07 05:00:18;;;;;;;6.97;4.13;;;;;;;15.16;46.39;96210.25;5026131;28;20710;-49
2023/04/07 05:02:46;;;;;;;6.63;4.20;;;;;;;15.25;46.09;96206.53;5022898;28;20089;-49
2023/04/07 05:05:15;;;;;;;6.30;3.80;;;;;;;15.36;45.41;96202.63;5026503;28;20759;-50
2023/04/07 05:07:44;;;;;;;7.65;4.43;;;;;;;15.77;44.37;96197.72;5022215;28;20155;-46
2023/04/07 05:10:13;;;;;;;7.35;4.93;;;;;;;16.06;43.59;96198.72;5035323;28;20077;-48
2023/04/07 05:12:41;;;;;;;6.55;4.57;;;;;;;16.31;42.96;96194.75;5022214;28;20112;-48
2023/04/07 05:15:11;;;;;;;10.70;4.22;;;;;;;16.53;42.57;96192.13;5020801;28;20080;-47
2023/04/07 05:17:40;;;;;;;6.68;4.13;;;;;;;16.49;42.62;96198.84;5020207;28;20538;-48
2023/04/07 05:20:11;;;;;;;5.50;3.78;;;;;;;16.24;42.88;96196.50;5020408;28;20104;-51
2023/04/07 05:22:39;;;;;;;;;;;;;;;16.12;43.09;96200.63;5027999;28;20095;-49
2023/04/07 05:25:08;;;;;;;6.30;3.67;;;;;;;16.12;43.18;96196.16;5028729;28;19960;-45
2023/04/07 05:27:36;;;;;;;6.50;3.88;;;;;;;16.13;43.32;96191.66;5020396;28;20077;-45
2023/04/07 05:30:06;;;;;;;7.97;4.10;;;;;;;15.72;44.08;96191.31;5021707;28;20089;-48
2023/04/07 05:32:36;;;;;;;6.87;4.20;;;;;;;15.56;44.66;96198.44;5020458;28;20081;-48
2023/04/07 05:35:06;;;;;;;6.55;3.80;;;;;;;15.99;43.93;96200.47;5026467;28;21069;-46
2023/04/07 05:37:34;;;;;;;6.18;3.70;;;;;;;16.13;43.83;96192.47;5023991;28;20080;-47
2023/04/07 05:40:03;;;;;;;8.25;3.97;;;;;;;16.25;43.85;96200.81;5024986;28;20164;-51
2023/04/07 05:42:31;;;;;;;6.88;3.95;;;;;;;16.22;44.28;96193.19;5022206;28;20085;-48
2023/04/07 05:44:59;;;;;;;5.82;3.83;;;;;;;16.19;44.65;96195.41;5024148;28;20096;-46
2023/04/07 05:47:28;;;;;;;9.65;5.07;;;;;;;15.94;44.56;96197.56;5021302;28;20089;-52
2023/04/07 05:49:57;;;;;;;8.65;5.03;;;;;;;15.11;46.04;96205.50;5025338;28;20127;-51
2023/04/07 05:52:26;;;;;;;10.40;4.95;;;;;;;15.55;45.84;96195.94;5026103;28;20099;-49
2023/04/07 05:54:54;;;;;;;6.65;4.30;;;;;;;15.71;45.43;96201.13;5028184;28;20085;-48
2023/04/07 05:57:22;;;;;;;8.07;4.90;;;;;;;16.06;44.64;96188.91;5028051;28;20081;-47
2023/04/07 05:59:50;;;;;;;7.80;4.70;;;;;;;16.16;44.36;96193.94;5024702;28;20100;-51
2023/04/07 06:02:19;;;;;;;8.93;4.63;;;;;;;16.31;44.18;96184.09;5030392;28;20084;-52
2023/04/07 06:04:47;;;;;;;7.03;4.60;;;;;;;16.43;44.28;96183.59;5024834;28;20084;-46
2023/04/07 06:07:17;;;;;;;9.55;4.70;;;;;;;16.40;44.25;96191.97;5032492;28;20077;-45
2023/04/07 06:09:45;;;;;;;8.30;4.78;;;;;;;16.56;44.53;96194.41;5029350;28;20079;-48
2023/04/07 06:12:15;;;;;;;8.23;4.60;;;;;;;16.32;45.07;96193.72;5030853;28;21039;-46
2023/04/07 06:14:46;;;;;;;7.97;4.75;;;;;;;16.32;45.19;96200.88;5024052;28;20548;-53
2023/04/07 06:17:15;;;;;;;8.73;4.40;;;;;;;16.13;45.44;96194.31;5034009;28;20469;-51
2023/04/07 06:19:43;;;;;;;7.65;4.43;;;;;;;16.11;45.83;96197.16;5031080;28;20099;-51
2023/04/07 06:22:11;;;;;;;8.85;4.88;;;;;;;16.35;44.92;96196.03;5030780;28;20084;-50
2023/04/07 06:24:41;;;;;;;9.50;4.88;;;;;;;16.33;45.11;96189.22;5025955;28;20672;-55
2023/04/07 06:27:09;;;;;;;17.10;13.35;;;;;;;16.35;45.22;96187.22;5026042;28;20092;-52
2023/04/07 06:29:38;;;;;;;9.05;5.85;;;;;;;16.67;44.60;96188.56;5024047;28;20092;-49
2023/04/07 06:32:06;;;;;;;74.25;27.60;;;;;;;16.82;44.48;96196.53;5026890;28;20089;-48
2023/04/07 06:34:35;;;;;;;12.45;7.57;;;;;;;17.20;44.08;96186.41;5031287;28;20096;-50
2023/04/07 06:37:04;;;;;;;10.05;6.53;;;;;;;17.43;43.60;96182.72;5028536;28;20091;-48
2023/04/07 06:39:32;;;;;;;8.48;5.18;;;;;;;16.84;45.26;96198.00;5028236;28;20081;-46
2023/04/07 06:42:02;;;;;;;7.68;5.10;;;;;;;16.83;45.70;96183.03;5031648;28;20081;-52
2023/04/07 06:44:30;;;;;;;9.02;5.53;;;;;;;17.48;45.27;96173.13;5029286;28;20112;-48
2023/04/07 06:46:59;;;;;;;8.10;5.07;;;;;;;17.89;44.72;96176.84;5024978;28;20096;-48
2023/04/07 06:49:27;;;;;;;12.65;7.18;;;;;;;18.50;43.18;96182.25;5023274;28;20081;-48
2023/04/07 06:51:55;;;;;;;8.25;5.55;;;;;;;17.62;44.62;96179.38;5028802;28;20081;-49
2023/04/07 06:54:24;;;;;;;9.68;5.57;;;;;;;17.59;44.50;96176.25;5025212;28;20089;-47
2023/04/07 06:56:52;;;;;;;8.40;5.82;;;;;;;17.60;44.71;96173.38;5030209;28;20081;-52
2023/04/07 06:59:23;;;;;;;8.95;6.45;;;;;;;16.95;46.64;96174.53;5031591;28;20089;-49
2023/04/07 07:01:51;;;;;;;8.13;5.00;;;;;;;17.58;45.79;96161.25;5027145;28;20177;-47
2023/04/07 07:04:19;;;;;;;10.80;5.80;;;;;;;18.21;44.37;96167.38;5029006;28;20141;-46
2023/04/07 07:06:48;;;;;;;9.93;5.38;;;;;;;17.37;45.91;96164.81;5031599;28;20478;-49
2023/04/07 07:09:17;;;;;;;9.48;5.43;;;;;;;18.73;43.70;96157.91;5027340;28;20093;-47
2023/04/07 07:11:45;;;;;;;7.97;5.38;;;;;;;17.97;44.63;96163.38;5032713;28;20084;-50
2023/04/07 07:14:13;;;;;;;10.40;5.68;;;;;;;17.19;45.53;96170.63;5026705;28;20111;-48
2023/04/07 07:16:43;;;;;;;9.75;5.78;;;;;;;18.33;44.21;96160.41;5027794;28;20081;-51
2023/04/07 07:19:11;;;;;;;8.45;6.07;;;;;;;18.78;43.67;96157.28;5022266;28;20092;-50
2023/04/07 07:21:39;;;;;;;9.23;5.18;;;;;;;18.25;44.54;96160.63;5020954;28;20096;-53
2023/04/07 07:24:08;;;;;;;8.77;6.00;;;;;;;17.65;45.47;96154.97;5030352;28;20159;-53
2023/04/07 07:26:36;;;;;;;9.02;6.18;;;;;;;16.88;46.92;96161.16;5026331;28;20088;-47
2023/04/07 07:29:04;;;;;;;9.82;5.88;;;;;;;17.16;46.53;96163.03;5028258;28;20088;-46
2023/04/07 07:31:33;;;;;;;10.98;7.35;;;;;;;17.57;45.93;96157.78;5027554;28;20544;-47
2023/04/07 07:34:02;;;;;;;8.50;5.60;;;;;;;18.61;43.62;96162.97;5027111;28;20096;-44
2023/04/07 07:36:31;;;;;;;8.00;5.00;;;;;;;18.50;43.54;96167.03;5028371;28;20077;-48
2023/04/07 07:38:59;;;;;;;7.60;5.13;;;;;;;19.56;41.63;96158.31;5026112;28;20072;-48
2023/04/07 07:41:27;;;;;;;8.07;5.32;;;;;;;19.31;41.20;96168.00;5030803;28;20100;-50
2023/04/07 07:43:56;;;;;;;8.52;5.38;;;;;;;19.90;39.94;96162.56;5032078;28;20073;-49
2023/04/07 07:46:26;;;;;;;8.18;4.97;;;;;;;19.66;41.00;96171.28;5028322;28;20123;-48
2023/04/07 07:48:54;;;;;;;8.55;5.35;;;;;;;19.87;40.30;96162.19;5025513;28;20088;-52
2023/04/07 07:51:24;;;;;;;10.05;5.45;;;;;;;20.14;40.22;96162.91;5033245;28;20076;-50
2023/04/07 07:53:52;;;;;;;9.18;5.50;;;;;;;20.28;40.19;96161.00;5027483;28;20081;-52
2023/04/07 07:56:21;;;;;;;9.73;6.22;;;;;;;20.24;40.17;96157.94;5029771;28;20101;-53
2023/04/07 07:58:49;;;;;;;7.85;5.88;;;;;;;18.93;42.98;96163.28;5026777;28;20092;-48
2023/04/07 08:01:17;;;;;;;8.55;5.85;;;;;;;17.99;44.79;96170.13;5027653;28;20077;-46
2023/04/07 08:03:46;;;;;;;8.13;5.68;;;;;;;19.84;42.30;96152.72;5023367;28;20090;-45
2023/04/07 08:06:15;;;;;;;10.40;5.50;;;;;;;20.28;40.96;96152.97;5028283;28;20093;-56
2023/04/07 08:08:45;;;;;;;9.23;5.75;;;;;;;19.95;41.40;96153.09;5024345;28;20105;-47
2023/04/07 08:11:13;;;;;;;8.03;5.57;;;;;;;20.73;39.73;96156.47;5022750;28;20073;-52
2023/04/07 08:13:44;;;;;;;17.17;12.73;;;;;;;20.77;39.78;96160.34;5029098;28;20084;-51
2023/04/07 08:16:12;;;;;;;9.60;6.30;;;;;;;19.84;39.87;96171.44;5026600;28;20096;-47
2023/04/07 08:18:41;;;;;;;8.73;5.88;;;;;;;20.07;39.90;96165.63;5033299;28;20481;-46
2023/04/07 08:21:09;;;;;;;8.43;5.85;;;;;;;20.78;38.65;96163.84;5025455;28;20088;-48
2023/04/07 08:23:37;;;;;;;9.98;6.80;;;;;;;21.48;37.22;96159.22;5025044;28;20076;-50
2023/04/07 08:26:07;;;;;;;8.77;6.45;;;;;;;21.47;37.18;96159.41;5034629;28;20473;-50
2023/04/07 08:28:35;;;;;;;9.93;5.93;;;;;;;21.36;37.74;96165.50;5026049;28;20484;-51
2023/04/07 08:31:04;;;;;;;8.93;6.28;;;;;;;21.61;36.98;96163.66;5027566;28;20507;-52
2023/04/07 08:33:32;;;;;;;9.07;6.95;;;;;;;21.27;37.18;96164.94;5027288;28;20081;-51
2023/04/07 08:36:00;;;;;;;10.98;6.45;;;;;;;21.42;37.15;96157.41;5027107;28;20474;-56
2023/04/07 08:38:30;;;;;;;9.82;6.28;;;;;;;20.45;37.93;96172.88;5026097;28;20089;-51
2023/04/07 08:41:03;;;;;;;8.63;6.40;;;;;;;20.85;37.99;96162.78;5026695;28;20528;-52
2023/04/07 08:43:33;;;;;;;9.63;6.45;;;;;;;20.96;37.48;96163.94;5022214;28;20544;-48
2023/04/07 08:46:02;;;;;;;10.07;6.40;;;;;;;21.56;36.21;96150.06;5024761;28;20107;-51
2023/04/07 08:48:32;;;;;;;8.85;5.93;;;;;;;22.28;35.56;96155.69;5022991;28;20077;-56
2023/04/07 08:51:04;;;;;;;9.63;6.22;;;;;;;21.94;36.30;96149.88;5026018;28;20065;-51
2023/04/07 08:53:36;;;;;;;9.68;6.38;;;;;;;21.98;36.03;96158.28;5031746;28;20582;-53
2023/04/07 08:56:06;;;;;;;8.32;6.22;;;;;;;23.03;34.73;96158.00;5021414;28;20305;-50
2023/04/07 08:58:36;;;;;;;23.02;12.85;;;;;;;21.38;36.69;96161.56;5022167;28;20091;-48
2023/04/07 09:01:05;;;;;;;9.65;5.95;;;;;;;20.81;37.23;96166.09;5025923;28;20119;-47
2023/04/07 09:03:34;;;;;;;10.95;6.15;;;;;;;21.77;35.71;96156.88;5027050;28;20163;-50
2023/04/07 09:06:02;;;;;;;9.50;7.03;;;;;;;20.62;36.63;96165.19;5026763;28;20085;-48
2023/04/07 09:08:31;;;;;;;9.52;6.50;;;;;;;21.28;36.70;96153.19;5026621;28;20092;-49
2023/04/07 09:10:59;;;;;;;9.45;6.22;;;;;;;20.98;37.20;96155.66;5024573;28;20092;-46
2023/04/07 09:13:27;;;;;;;8.60;6.63;;;;;;;20.68;37.27;96160.81;5032011;28;20072;-49
2023/04/07 09:15:57;;;;;;;10.93;6.53;;;;;;;21.34;36.97;96157.69;5027209;28;21469;-51
2023/04/07 09:18:28;;;;;;;9.63;6.72;;;;;;;21.27;36.58;96156.91;5027412;28;20041;-50
2023/04/07 09:20:57;;;;;;;9.73;6.63;;;;;;;22.88;34.67;96157.56;5018901;28;20076;-54
2023/04/07 09:23:31;;;;;;;9.73;7.40;;;;;;;23.58;33.13;96144.25;5035879;28;20547;-50
2023/04/07 09:26:00;;;;;;;19.40;12.88;;;;;;;22.58;34.06;96153.03;5029850;28;21011;-46
2023/04/07 09:28:40;;;;;;;12.43;6.40;;;;;;;22.46;34.95;96154.84;5027407;28;20532;-49
2023/04/07 09:31:09;;;;;;;7.97;5.85;;;;;;;22.64;34.58;96145.91;5032092;28;20081;-54
2023/04/07 09:33:38;;;;;;;10.43;6.40;;;;;;;22.65;34.45;96145.72;5031134;28;20717;-53
2023/04/07 09:36:07;;;;;;;8.98;6.75;;;;;;;23.35;33.15;96145.06;5032818;28;20520;-50
2023/04/07 09:38:37;;;;;;;9.98;6.72;;;;;;;21.43;35.56;96145.63;5036141;28;20108;-52
2023/04/07 09:41:07;;;;;;;9.48;6.85;;;;;;;22.12;35.00;96148.22;5032816;28;20085;-51
2023/04/07 09:43:38;;;;;;;14.25;10.43;;;;;;;21.85;35.28;96142.31;5023077;28;20080;-49
2023/04/07 09:46:10;;;;;;;10.80;7.63;;;;;;;21.50;35.78;96142.88;5027808;28;20088;-52
2023/04/07 09:48:39;;;;;;;8.57;6.72;;;;;;;20.83;36.30;96146.09;5021797;28;20078;-50
2023/04/07 09:51:09;;;;;;;10.27;6.88;;;;;;;22.90;33.84;96132.09;5030223;28;20093;-55
2023/04/07 09:53:46;;;;;;;12.45;7.93;;;;;;;22.18;34.93;96132.06;5027882;28;20085;-48
2023/04/07 09:56:16;;;;;;;12.30;8.82;;;;;;;22.35;34.22;96139.50;5033791;28;20192;-55
2023/04/07 09:58:46;;;;;;;12.10;7.88;;;;;;;22.32;35.17;96134.56;5027060;28;20080;-51
2023/04/07 10:01:16;;;;;;;9.73;7.07;;;;;;;22.96;33.84;96127.72;5030054;28;20868;-46
2023/04/07 10:03:46;;;;;;;8.00;6.20;;;;;;;23.91;33.03;96119.41;5027722;28;20534;-51
2023/04/07 10:06:15;;;;;;;8.90;7.38;;;;;;;23.71;33.27;96124.38;5035331;28;20503;-47
2023/04/07 10:08:44;;;;;;;12.52;9.40;;;;;;;24.27;31.56;96112.06;5020328;28;20085;-49
2023/04/07 10:11:12;;;;;;;11.32;9.10;;;;;;;23.84;32.27;96115.22;5025013;28;20088;-51
2023/04/07 10:13:40;;;;;;;14.40;10.85;;;;;;;24.53;31.52;96107.19;5028490;28;20092;-49
2023/04/07 10:16:09;;;;;;;12.82;7.70;;;;;;;24.48;31.53;96102.53;5024423;28;20422;-51
2023/04/07 10:18:39;;;;;;;9.70;6.20;;;;;;;23.09;32.54;96118.59;5029323;28;20073;-52
2023/04/07 10:21:08;;;;;;;10.02;6.38;;;;;;;23.44;32.08;96113.25;5026368;28;20077;-48
2023/04/07 10:23:53;;;;;;;11.88;7.32;;;;;;;23.92;31.37;96115.69;5022959;28;20465;-50
2023/04/07 10:26:25;;;;;;;10.15;7.43;;;;;;;24.04;31.27;96115.66;5020137;28;20070;-47
2023/04/07 10:28:59;;;;;;;10.40;7.85;;;;;;;23.27;32.03;96118.50;5022455;28;20089;-45
2023/04/07 10:31:27;;;;;;;10.18;8.20;;;;;;;23.37;32.31;96113.38;5021959;28;20085;-46
2023/04/07 10:33:57;;;;;;;9.35;8.00;;;;;;;24.01;32.86;96109.91;5027155;28;20154;-48
2023/04/07 10:36:27;;;;;;;9.60;6.77;;;;;;;24.02;32.66;96112.41;5023912;28;20095;-52
2023/04/07 10:39:19;;;;;;;10.25;7.65;;;;;;;24.04;31.83;96117.53;5024202;28;21077;-46
2023/04/07 10:41:47;;;;;;;6.68;4.47;;;;;;;23.28;33.35;96122.81;5027005;28;20085;-47
2023/04/07 10:44:47;;;;;;;9.25;7.35;;;;;;;24.90;31.24;96112.16;5022729;28;20077;-50
2023/04/07 10:47:15;;;;;;;9.95;7.80;;;;;;;25.01;29.96;96111.28;5026964;28;20089;-53
2023/04/07 10:50:17;;;;;;;8.80;7.30;;;;;;;24.15;31.29;96113.97;5032008;28;20048;-49
2023/04/07 10:52:46;;;;;;;10.27;7.47;;;;;;;25.02;30.50;96111.03;5025122;28;20181;-52
2023/04/07 10:55:35;;;;;;;11.43;7.78;;;;;;;25.10;30.43;96110.63;5030270;28;20072;-48
2023/04/07 10:58:22;;;;;;;9.82;7.55;;;;;;;25.09;29.31;96113.59;5022957;28;20089;-52
2023/04/07 11:01:23;;;;;;;9.82;7.57;;;;;;;25.53;28.33;96111.03;5025121;28;20080;-49
2023/04/07 11:03:59;;;;;;;11.38;7.30;;;;;;;24.96;28.86;96112.03;4963171;28;20074;-48
2023/04/07 11:06:30;;;;;;;8.27;6.93;;;;;;;23.83;30.59;96109.03;4967784;28;20530;-51
2023/04/07 11:08:58;;;;;;;10.02;7.03;;;;;;;23.37;30.74;96116.06;4997191;28;20101;-49
2023/04/07 11:11:38;;;;;;;9.43;7.18;;;;;;;24.30;29.44;96103.53;5029394;28;20115;-49
2023/04/07 11:14:07;;;;;;;10.32;8.07;;;;;;;24.23;29.57;96099.34;5024038;28;20085;-48
2023/04/07 11:16:37;;;;;;;10.65;7.43;;;;;;;22.75;31.32;96111.03;5024350;28;20080;-45
2023/04/07 11:19:05;;;;;;;10.30;7.60;;;;;;;23.74;29.91;96101.53;5028579;28;20551;-47
2023/04/07 11:21:35;;;;;;;10.13;7.55;;;;;;;23.80;30.20;96098.72;5036744;28;20089;-45
2023/04/07 11:24:04;;;;;;;11.25;7.68;;;;;;;24.07;31.02;96095.50;5024350;28;20653;-46
2023/04/07 11:26:37;;;;;;;11.27;7.45;;;;;;;23.72;31.80;96098.28;5021402;28;20087;-48
2023/04/07 11:29:06;;;;;;;11.90;7.55;;;;;;;23.66;31.31;96094.63;5018483;28;20125;-46
2023/04/07 11:31:35;;;;;;;10.25;7.47;;;;;;;24.03;30.41;96094.34;5023441;28;20081;-46
2023/04/07 11:34:04;;;;;;;12.10;7.90;;;;;;;24.92;29.52;96094.69;5026493;28;20092;-49
2023/04/07 11:36:38;;;;;;;10.73;7.77;;;;;;;25.45;29.31;96081.78;5027567;28;20076;-50
2023/04/07 11:39:18;;;;;;;10.18;8.18;;;;;;;24.02;31.49;96090.00;5031390;28;20084;-50
2023/04/07 11:41:47;;;;;;;11.80;7.23;;;;;;;24.17;30.97;96091.13;5025188;28;20529;-47